Time;durP1;ratioP1;P1;durP2;ratioP2;P2;SDS_P1;SDS_P2;PMS_P1;PMS_P2;Temp;Humidity;BMP_temperature;BMP_pressure;BME280_temperature;BME280_humidity;BME280_pressure;Samples;Min_cycle;Max_cycle;Signal;HPM_P1;HPM_P2
2023/02/05 00:00:29;;;;;;;6.13;3.00;;;;;;;6.15;66.76;101863.25;5014768;28;20124;-80
2023/02/05 00:02:55;;;;;;;9.27;3.13;;;;;;;6.19;66.72;101851.03;5014512;28;20057;-80
2023/02/05 00:05:22;;;;;;;4.05;3.08;;;;;;;6.23;66.52;101847.53;5013908;28;20049;-80
2023/02/05 00:07:48;;;;;;;4.68;2.95;;;;;;;6.27;66.31;101849.25;5013795;28;20048;-81
2023/02/05 00:10:16;;;;;;;3.85;3.10;;;;;;;6.28;65.85;101837.91;5013753;28;20050;-80
2023/02/05 00:12:43;;;;;;;4.07;3.08;;;;;;;6.30;65.87;101832.66;5013958;28;20092;-80
2023/02/05 00:15:10;;;;;;;4.32;3.28;;;;;;;6.30;65.76;101833.53;5013719;28;20054;-80
2023/02/05 00:17:36;;;;;;;4.35;3.13;;;;;;;6.31;65.73;101831.81;5013787;28;20054;-80
2023/02/05 00:20:04;;;;;;;5.20;3.45;;;;;;;6.29;65.33;101831.81;5014128;28;20104;-79
2023/02/05 00:22:31;;;;;;;3.75;3.15;;;;;;;6.27;65.56;101828.31;5013843;28;20058;-80
2023/02/05 00:24:59;;;;;;;6.70;3.35;;;;;;;6.24;65.19;101817.88;5013427;28;20486;-80
2023/02/05 00:27:26;;;;;;;4.78;3.17;;;;;;;6.21;65.15;101810.91;5013748;28;20041;-80
2023/02/05 00:29:53;;;;;;;4.10;2.80;;;;;;;6.18;65.33;101805.72;5013626;28;20748;-80
2023/02/05 00:32:20;;;;;;;4.97;3.20;;;;;;;6.16;65.37;101796.16;5013455;28;20053;-80
2023/02/05 00:34:47;;;;;;;5.05;3.40;;;;;;;6.15;65.65;101794.38;4996071;28;20053;-80
2023/02/05 00:37:13;;;;;;;3.95;2.72;;;;;;;6.14;65.76;101793.53;5013681;28;20052;-80
2023/02/05 00:39:40;;;;;;;4.88;2.97;;;;;;;6.13;66.00;101790.03;5013640;28;20057;-80
2023/02/05 00:42:07;;;;;;;4.68;3.28;;;;;;;6.13;65.63;101782.19;5013355;28;20490;-80
2023/02/05 00:44:35;;;;;;;5.50;3.40;;;;;;;6.13;65.34;101781.31;4995851;28;20419;-80
2023/02/05 00:47:02;;;;;;;4.50;2.83;;;;;;;6.12;65.74;101783.09;4995995;28;20053;-80
2023/02/05 00:49:29;;;;;;;5.40;3.17;;;;;;;6.10;65.70;101769.13;5013147;28;20068;-80
2023/02/05 00:51:55;;;;;;;4.97;3.00;;;;;;;6.09;66.09;101762.19;5013485;28;20046;-80
2023/02/05 00:54:23;;;;;;;4.15;3.30;;;;;;;6.09;65.85;101743.88;5013280;28;20054;-80
2023/02/05 00:56:49;;;;;;;6.70;3.60;;;;;;;6.09;66.29;101741.25;5013264;28;20053;-80
2023/02/05 00:59:17;;;;;;;5.10;3.10;;;;;;;6.07;65.97;101745.63;5013324;28;20122;-80
2023/02/05 01:01:44;;;;;;;4.50;3.20;;;;;;;6.08;65.82;101755.22;5013001;28;20056;-80
2023/02/05 01:04:11;;;;;;;7.22;3.38;;;;;;;6.07;65.65;101748.25;4995164;28;20054;-80
2023/02/05 01:06:38;;;;;;;5.05;3.47;;;;;;;6.06;65.58;101732.56;5012192;28;20053;-80
2023/02/05 01:09:05;;;;;;;5.35;3.58;;;;;;;6.04;65.38;101740.41;5012570;28;20045;-80
2023/02/05 01:11:33;;;;;;;6.15;3.38;;;;;;;5.99;65.35;101740.41;5012867;28;20112;-80
2023/02/05 01:13:59;;;;;;;4.57;3.25;;;;;;;5.99;65.77;101750.00;5012599;28;20486;-80
2023/02/05 01:16:28;;;;;;;4.43;3.15;;;;;;;5.96;65.49;101763.09;5012553;28;20383;-80
2023/02/05 01:18:55;;;;;;;4.50;3.42;;;;;;;5.94;65.78;101755.25;5012545;28;20058;-80
2023/02/05 01:21:23;;;;;;;5.45;3.35;;;;;;;5.91;65.52;101754.41;5012815;28;20104;-80
2023/02/05 01:23:51;;;;;;;9.40;4.20;;;;;;;5.91;65.73;101757.88;5012342;28;20045;-80
2023/02/05 01:26:18;;;;;;;5.82;3.80;;;;;;;5.89;65.74;101748.31;5012427;28;20042;-80
2023/02/05 01:28:45;;;;;;;10.20;4.10;;;;;;;5.87;65.60;101750.94;5012022;28;20058;-80
2023/02/05 01:31:15;;;;;;;6.32;3.40;;;;;;;5.85;65.69;101748.34;4995028;28;20053;-80
2023/02/05 01:33:41;;;;;;;4.55;3.33;;;;;;;5.86;65.98;101750.06;4995164;28;20049;-80
2023/02/05 01:36:09;;;;;;;5.57;3.53;;;;;;;5.84;65.92;101746.59;5012328;28;20061;-80
2023/02/05 01:38:35;;;;;;;5.55;3.50;;;;;;;5.85;66.11;101742.22;5012156;28;20395;-80
2023/02/05 01:41:03;;;;;;;8.07;3.70;;;;;;;5.84;65.95;101751.81;5012156;28;20486;-80
2023/02/05 01:43:29;;;;;;;5.05;3.72;;;;;;;5.83;65.87;101744.84;5012493;28;20060;-80
2023/02/05 01:46:00;;;;;;;5.75;3.90;;;;;;;5.81;64.78;101730.94;5011863;28;20651;-80
2023/02/05 01:48:31;;;;;;;5.45;4.07;;;;;;;5.81;65.74;101725.72;5012001;28;20487;-80
2023/02/05 01:51:03;;;;;;;7.88;4.25;;;;;;;5.79;65.75;101727.44;5012073;28;20582;-80
2023/02/05 01:53:33;;;;;;;5.85;3.95;;;;;;;5.76;65.58;101729.22;5012122;28;20045;-80
2023/02/05 01:56:06;;;;;;;5.90;4.50;;;;;;;5.70;65.69;101735.34;5011909;28;20093;-80
2023/02/05 01:58:39;;;;;;;5.25;3.95;;;;;;;5.66;65.72;101737.09;5012072;28;20076;-80
2023/02/05 02:01:06;;;;;;;6.82;4.53;;;;;;;5.62;66.16;101735.38;5012328;28;20462;-81
2023/02/05 02:03:33;;;;;;;6.53;4.18;;;;;;;5.57;66.32;101734.53;5012147;28;20392;-81
2023/02/05 02:05:59;;;;;;;7.70;4.88;;;;;;;5.50;66.49;101741.53;5011648;28;20053;-80
2023/02/05 02:08:26;;;;;;;6.70;4.53;;;;;;;5.47;66.71;101741.53;5011721;28;20108;-81
2023/02/05 02:10:57;;;;;;;7.40;4.93;;;;;;;5.43;66.80;101742.41;5011779;28;20106;-81
2023/02/05 02:13:32;;;;;;;7.03;4.20;;;;;;;5.38;67.10;101742.41;5012017;28;20042;-81
2023/02/05 02:15:59;;;;;;;5.85;4.28;;;;;;;5.37;67.00;101738.06;4994753;28;20073;-80
2023/02/05 02:18:27;;;;;;;5.45;4.15;;;;;;;5.33;67.37;101734.63;5011728;28;20470;-81
2023/02/05 02:21:13;;;;;;;6.88;4.88;;;;;;;5.29;67.45;101748.56;5011841;28;20045;-80
2023/02/05 02:24:02;;;;;;;6.07;4.75;;;;;;;5.28;67.53;101735.50;5011851;28;20047;-80
2023/02/05 02:26:54;;;;;;;6.15;4.65;;;;;;;5.26;67.64;101725.06;5011610;28;20058;-80
2023/02/05 02:29:42;;;;;;;8.13;5.13;;;;;;;5.22;67.61;101721.59;5011440;28;20073;-81
2023/02/05 02:32:23;;;;;;;7.55;5.15;;;;;;;5.19;67.74;101720.72;5011721;28;20050;-80
2023/02/05 02:34:57;;;;;;;7.57;4.82;;;;;;;5.17;67.80;101712.03;5011643;28;20046;-81
2023/02/05 02:37:33;;;;;;;7.93;5.05;;;;;;;5.15;68.27;101705.91;5010915;28;20050;-80
2023/02/05 02:40:22;;;;;;;7.63;4.95;;;;;;;5.14;68.55;101706.81;4992832;28;20049;-81
2023/02/05 02:43:06;;;;;;;8.18;5.00;;;;;;;5.15;68.68;101693.75;4993984;28;20625;-80
2023/02/05 02:45:35;;;;;;;8.35;5.18;;;;;;;5.17;68.62;101680.69;5011597;28;20482;-80
2023/02/05 02:48:04;;;;;;;8.05;5.45;;;;;;;5.15;68.48;101678.09;5011259;28;20049;-81
2023/02/05 02:50:35;;;;;;;10.73;4.82;;;;;;;5.16;68.89;101681.56;5011310;28;20054;-80
2023/02/05 02:53:13;;;;;;;9.20;5.40;;;;;;;5.12;68.58;101685.06;5011220;28;20058;-80
2023/02/05 02:55:42;;;;;;;10.85;5.55;;;;;;;5.12;68.83;101678.09;5011487;28;20060;-80
2023/02/05 02:58:17;;;;;;;9.02;6.20;;;;;;;5.09;68.75;101676.34;5011115;28;20104;-80
2023/02/05 03:00:45;;;;;;;10.63;6.28;;;;;;;5.09;68.86;101665.91;5011113;28;20041;-80
2023/02/05 03:03:15;;;;;;;9.13;5.80;;;;;;;5.06;69.29;101665.06;5011382;28;20442;-80
2023/02/05 03:05:45;;;;;;;8.98;5.82;;;;;;;5.04;68.95;101654.63;5011327;28;20108;-80
2023/02/05 03:08:19;;;;;;;10.02;5.47;;;;;;;5.01;69.25;101644.19;4993461;28;20391;-80
2023/02/05 03:10:53;;;;;;;8.15;5.75;;;;;;;5.02;69.56;101650.28;4992437;28;20050;-80
2023/02/05 03:13:20;;;;;;;6.70;5.22;;;;;;;5.02;69.64;101651.16;5009942;28;20376;-80
2023/02/05 03:15:48;;;;;;;7.82;5.30;;;;;;;5.01;69.79;101636.34;5011312;28;20065;-81
2023/02/05 03:18:16;;;;;;;12.60;6.03;;;;;;;5.01;69.84;101638.97;4993465;28;20057;-81
2023/02/05 03:21:00;;;;;;;9.60;5.43;;;;;;;4.99;69.53;101638.13;5011105;28;20053;-81
2023/02/05 03:23:27;;;;;;;9.32;5.45;;;;;;;5.02;69.69;101635.50;5011255;28;20057;-81
2023/02/05 03:25:54;;;;;;;9.32;6.07;;;;;;;5.04;69.91;101640.69;5010658;28;20050;-80
2023/02/05 03:28:21;;;;;;;9.50;5.97;;;;;;;5.05;70.29;101629.41;5010719;28;20383;-80
2023/02/05 03:31:17;;;;;;;10.95;6.50;;;;;;;5.05;70.31;101629.41;5011336;28;20112;-81
2023/02/05 03:33:58;;;;;;;15.15;6.10;;;;;;;5.07;70.24;101623.31;5010926;28;20149;-80
2023/02/05 03:36:30;;;;;;;9.68;5.82;;;;;;;5.13;70.81;101635.47;5010650;28;20050;-80
2023/02/05 03:39:08;;;;;;;10.85;6.03;;;;;;;5.16;70.87;101635.44;4993467;28;20104;-81
2023/02/05 03:44:56;;;;;;;11.98;5.60;;;;;;;5.21;70.61;101630.22;5010965;28;20120;-81
2023/02/05 03:47:43;;;;;;;9.23;5.93;;;;;;;5.24;70.75;101640.66;5010836;28;20065;-80
2023/02/05 03:50:36;;;;;;;12.35;6.50;;;;;;;5.26;70.78;101638.00;4993397;28;20085;-80
2023/02/05 03:53:18;;;;;;;11.25;6.05;;;;;;;5.27;70.99;101634.53;5014591;28;20415;-80
2023/02/05 03:55:50;;;;;;;11.82;6.03;;;;;;;5.30;70.75;101634.50;5014569;28;20046;-81
2023/02/05 03:58:27;;;;;;;15.90;6.40;;;;;;;5.31;71.02;101628.44;4996964;28;20104;-81
2023/02/05 04:00:54;;;;;;;13.90;5.80;;;;;;;5.33;70.92;101627.53;4996878;28;20058;-81
2023/02/05 04:03:22;;;;;;;12.05;5.75;;;;;;;5.37;71.24;101637.94;5014380;28;20053;-81
2023/02/05 04:05:48;;;;;;;14.40;6.00;;;;;;;5.39;71.25;101639.72;4996588;28;20119;-80
2023/02/05 04:08:15;;;;;;;12.15;5.60;;;;;;;5.41;71.47;101634.44;5014006;28;20514;-80
2023/02/05 04:10:42;;;;;;;11.23;5.97;;;;;;;5.43;71.55;101640.56;5013855;28;20483;-81
2023/02/05 04:13:09;;;;;;;13.73;6.60;;;;;;;5.46;71.20;101635.31;4996789;28;20053;-81
2023/02/05 04:15:37;;;;;;;11.73;6.32;;;;;;;5.48;71.30;101628.34;5014000;28;20057;-81
2023/02/05 04:18:04;;;;;;;12.20;6.18;;;;;;;5.50;71.31;101631.81;5013691;28;20050;-80
2023/02/05 04:20:31;;;;;;;14.45;6.88;;;;;;;5.51;71.26;101633.53;4996481;28;20046;-81
2023/02/05 04:22:58;;;;;;;15.15;6.35;;;;;;;5.53;71.27;101629.16;4996885;28;20057;-80
2023/02/05 04:25:25;;;;;;;13.90;6.60;;;;;;;5.54;71.24;101622.22;5013865;28;20116;-81
2023/02/05 04:27:52;;;;;;;15.45;7.10;;;;;;;5.56;71.25;101616.09;5013841;28;20057;-81
2023/02/05 04:30:20;;;;;;;11.43;6.10;;;;;;;5.57;71.29;101620.44;5013513;28;20065;-80
2023/02/05 04:32:47;;;;;;;14.40;7.22;;;;;;;5.60;71.40;101619.53;5013985;28;20061;-80
2023/02/05 04:35:14;;;;;;;17.85;7.18;;;;;;;5.61;71.51;101614.31;5013703;28;20050;-81
2023/02/05 04:37:40;;;;;;;17.33;7.25;;;;;;;5.63;71.33;101618.66;5013169;28;20050;-80
2023/02/05 04:40:10;;;;;;;14.90;6.97;;;;;;;5.63;71.24;101623.88;5013701;28;20045;-80
2023/02/05 04:42:37;;;;;;;14.90;6.95;;;;;;;5.64;71.31;101633.47;5013699;28;20053;-81
2023/02/05 04:45:05;;;;;;;16.98;7.38;;;;;;;5.64;71.49;101636.94;5013244;28;20050;-81
2023/02/05 04:47:32;;;;;;;16.27;7.40;;;;;;;5.65;71.49;101630.88;5013168;28;20050;-81
2023/02/05 04:50:00;;;;;;;18.00;7.28;;;;;;;5.65;71.49;101630.88;5013510;28;20096;-81
2023/02/05 04:52:26;;;;;;;20.40;8.18;;;;;;;5.66;71.36;101626.50;5013404;28;20046;-81
2023/02/05 04:54:54;;;;;;;18.60;8.52;;;;;;;5.64;71.69;101618.66;4995957;28;20096;-81
2023/02/05 04:57:21;;;;;;;18.58;8.77;;;;;;;5.65;71.92;101606.47;5012983;28;20049;-80
2023/02/05 04:59:49;;;;;;;17.90;8.75;;;;;;;5.63;71.91;101600.38;5013098;28;20100;-81
2023/02/05 05:02:15;;;;;;;16.45;8.23;;;;;;;5.63;71.38;101600.38;5012126;28;20060;-81
2023/02/05 05:07:17;;;;;;;18.17;9.00;;;;;;;5.57;71.56;101607.38;5076018;23;20106;-81
2023/02/05 05:09:44;;;;;;;21.48;8.70;;;;;;;5.52;71.83;101611.78;5012854;28;20097;-80
2023/02/05 05:12:10;;;;;;;16.08;9.05;;;;;;;5.48;71.66;101608.31;4995408;28;20049;-80
2023/02/05 05:14:37;;;;;;;16.73;8.95;;;;;;;5.44;71.82;101614.44;5012463;28;20061;-79
2023/02/05 05:17:03;;;;;;;15.48;9.15;;;;;;;5.41;71.75;101611.81;5012544;28;20050;-79
2023/02/05 05:19:30;;;;;;;19.15;9.05;;;;;;;5.39;72.04;101612.72;5012610;28;20054;-82
2023/02/05 05:21:57;;;;;;;16.23;9.40;;;;;;;5.35;72.18;101601.44;5012315;28;20046;-79
2023/02/05 05:24:24;;;;;;;19.10;10.43;;;;;;;5.32;72.32;101602.31;5012901;28;20049;-80
2023/02/05 05:26:50;;;;;;;16.88;10.80;;;;;;;5.29;72.53;101609.28;5012153;28;20537;-79
2023/02/05 05:29:16;;;;;;;24.05;9.93;;;;;;;5.28;72.48;101603.19;5012332;28;20058;-81
2023/02/05 05:31:43;;;;;;;19.95;9.43;;;;;;;5.28;72.73;101605.81;5012427;28;20116;-80
2023/02/05 05:34:09;;;;;;;21.17;9.93;;;;;;;5.28;72.94;101602.31;5012383;28;20053;-80
2023/02/05 05:36:36;;;;;;;23.80;10.30;;;;;;;5.29;72.85;101598.84;5011926;28;20041;-79
2023/02/05 05:44:32;;;;;;;18.65;10.25;;;;;;;5.30;73.15;101593.59;5012267;28;20100;-79
2023/02/05 05:46:58;;;;;;;16.45;10.15;;;;;;;5.33;73.32;101593.59;5011913;28;20050;-78
2023/02/05 05:49:25;;;;;;;18.65;10.02;;;;;;;5.34;73.58;101582.28;5011913;28;20567;-79
2023/02/05 05:51:51;;;;;;;18.02;10.52;;;;;;;5.39;73.89;101581.38;5012069;28;20053;-78
2023/02/05 05:54:17;;;;;;;18.58;11.10;;;;;;;5.43;74.15;101575.25;5011593;28;20103;-80
2023/02/05 05:56:44;;;;;;;15.23;10.48;;;;;;;5.48;74.24;101576.97;5011843;28;20519;-82
2023/02/05 05:59:11;;;;;;;20.70;11.48;;;;;;;5.53;74.64;101579.53;5011962;28;20049;-81
2023/02/05 06:01:38;;;;;;;18.15;11.38;;;;;;;5.59;74.75;101569.06;4994571;28;20112;-79
2023/02/05 06:04:04;;;;;;;24.25;12.38;;;;;;;5.65;74.91;101565.53;5011654;28;20054;-79
2023/02/05 06:06:30;;;;;;;28.25;12.20;;;;;;;5.71;75.12;101572.44;5011668;28;20045;-80
2023/02/05 06:08:57;;;;;;;20.40;12.20;;;;;;;5.78;75.20;101573.25;5011400;28;20491;-79
2023/02/05 06:11:23;;;;;;;21.10;12.43;;;;;;;5.83;75.00;101564.53;5011888;28;20115;-78
2023/02/05 06:13:50;;;;;;;21.60;12.23;;;;;;;5.88;75.24;101554.03;5011487;28;20073;-78
2023/02/05 06:16:16;;;;;;;18.10;12.02;;;;;;;5.93;75.40;101547.03;5011627;28;20054;-79
2023/02/05 06:18:43;;;;;;;22.75;11.57;;;;;;;5.98;75.10;101547.00;5011406;28;20069;-79
2023/02/05 06:21:09;;;;;;;20.48;12.32;;;;;;;6.01;74.53;101541.72;5011592;28;20061;-82
2023/02/05 06:23:35;;;;;;;18.48;12.43;;;;;;;6.02;74.67;101545.22;5011547;28;20053;-79
2023/02/05 06:26:02;;;;;;;23.70;12.65;;;;;;;6.02;74.45;101546.06;5011597;28;20054;-80
2023/02/05 06:28:28;;;;;;;20.45;13.02;;;;;;;6.02;74.62;101540.81;5011190;28;20123;-79
2023/02/05 06:30:55;;;;;;;20.73;12.15;;;;;;;6.02;74.67;101545.22;5011360;28;20061;-79
2023/02/05 06:33:21;;;;;;;17.13;11.18;;;;;;;6.01;74.69;101544.34;5011261;28;20145;-78
2023/02/05 06:35:48;;;;;;;17.90;12.00;;;;;;;6.02;74.59;101551.28;5010932;28;20088;-79
2023/02/05 06:38:14;;;;;;;19.05;12.85;;;;;;;6.03;74.88;101547.84;5011236;28;20057;-83
2023/02/05 06:40:40;;;;;;;21.33;12.93;;;;;;;6.03;74.75;101544.31;5011976;28;20046;-78
2023/02/05 06:43:07;;;;;;;21.40;12.82;;;;;;;6.04;75.31;101541.72;5011796;28;20152;-78
2023/02/05 06:45:33;;;;;;;22.33;13.25;;;;;;;6.08;75.51;101539.94;5011409;28;20057;-79
2023/02/05 06:48:00;;;;;;;24.48;14.52;;;;;;;6.12;76.02;101534.69;4994021;28;20050;-78
2023/02/05 06:50:27;;;;;;;26.45;15.43;;;;;;;6.17;76.32;101528.53;4993546;28;20050;-82
2023/02/05 06:52:53;;;;;;;26.20;15.07;;;;;;;6.23;76.26;101528.47;5010931;28;20057;-82
2023/02/05 06:55:20;;;;;;;30.95;16.42;;;;;;;6.29;76.33;101531.03;5010722;28;20046;-82
2023/02/05 06:57:46;;;;;;;34.20;16.13;;;;;;;6.34;76.65;101531.84;5010604;28;20409;-81
2023/02/05 07:00:13;;;;;;;28.80;16.92;;;;;;;6.42;76.40;101536.16;5010852;28;20124;-81
2023/02/05 07:02:40;;;;;;;30.55;18.02;;;;;;;6.47;76.72;101531.72;5010808;28;20052;-81
2023/02/05 07:05:07;;;;;;;27.88;17.52;;;;;;;6.52;76.88;101529.91;5010282;28;20487;-81
2023/02/05 07:07:33;;;;;;;30.50;16.23;;;;;;;6.58;76.51;101529.84;5010510;28;20449;-82
2023/02/05 07:10:00;;;;;;;30.85;17.02;;;;;;;6.63;76.55;101522.81;5010758;28;20054;-82
2023/02/05 07:12:27;;;;;;;28.70;16.95;;;;;;;6.68;76.72;101524.47;5010862;28;20049;-81
2023/02/05 07:14:53;;;;;;;25.08;15.85;;;;;;;6.72;76.69;101518.31;5010209;28;20129;-80
2023/02/05 07:17:20;;;;;;;27.13;15.18;;;;;;;6.75;76.19;101518.31;5010564;28;20077;-82
2023/02/05 07:19:46;;;;;;;26.60;15.27;;;;;;;6.77;76.10;101529.63;5010373;28;20299;-81
2023/02/05 07:22:13;;;;;;;25.80;14.63;;;;;;;6.78;75.68;101526.13;5010832;28;20062;-80
2023/02/05 07:24:40;;;;;;;22.65;13.80;;;;;;;6.77;75.41;101521.78;5002754;28;20046;-81
2023/02/05 07:27:06;;;;;;;23.90;14.00;;;;;;;6.75;75.09;101531.38;4996118;28;20041;-81
2023/02/05 07:29:32;;;;;;;21.38;14.52;;;;;;;6.74;75.02;101524.44;5014377;28;20057;-81
2023/02/05 07:31:59;;;;;;;27.00;16.08;;;;;;;6.72;75.11;101534.03;5014396;28;20054;-80
2023/02/05 07:34:25;;;;;;;25.83;14.93;;;;;;;6.71;75.64;101534.91;4996720;28;20050;-81
2023/02/05 07:36:52;;;;;;;24.08;14.82;;;;;;;6.71;75.63;101537.53;5014143;28;20085;-81
2023/02/05 07:39:18;;;;;;;22.25;15.48;;;;;;;6.71;75.45;101542.78;5014297;28;20108;-81
2023/02/05 07:41:45;;;;;;;22.92;14.40;;;;;;;6.70;75.72;101546.28;5014280;28;20108;-80
2023/02/05 07:44:11;;;;;;;20.92;14.15;;;;;;;6.70;75.49;101544.53;5014167;28;20053;-80
2023/02/05 07:46:38;;;;;;;17.90;11.95;;;;;;;6.71;75.81;101545.41;5013787;28;20057;-81
2023/02/05 07:49:05;;;;;;;17.52;12.70;;;;;;;6.71;75.76;101545.41;5014544;28;20426;-80
2023/02/05 07:51:31;;;;;;;18.50;12.32;;;;;;;6.71;76.00;101542.78;5014167;28;20050;-81
2023/02/05 07:53:58;;;;;;;16.77;12.73;;;;;;;6.72;76.07;101544.50;5014093;28;20057;-81
2023/02/05 07:56:24;;;;;;;17.00;12.38;;;;;;;6.74;76.26;101540.13;5013633;28;20054;-81
2023/02/05 07:58:51;;;;;;;18.20;12.43;;;;;;;6.75;76.43;101544.47;5013894;28;20793;-81
2023/02/05 08:01:17;;;;;;;17.13;12.02;;;;;;;6.77;76.44;101558.41;5013456;28;20069;-81
2023/02/05 08:03:44;;;;;;;15.70;11.55;;;;;;;6.78;76.54;101555.75;5013976;28;20050;-80
2023/02/05 08:06:13;;;;;;;17.48;12.02;;;;;;;6.78;76.17;101549.69;5013724;28;20144;-81
2023/02/05 08:08:40;;;;;;;18.70;12.43;;;;;;;6.80;76.11;101553.13;5013648;28;20068;-80
2023/02/05 08:11:06;;;;;;;15.18;11.52;;;;;;;6.80;76.48;101547.06;5013567;28;20045;-80
2023/02/05 08:13:33;;;;;;;21.15;12.43;;;;;;;6.80;76.46;101553.13;5013436;28;20054;-82
2023/02/05 08:16:04;;;;;;;16.85;11.60;;;;;;;6.80;76.17;101554.91;5013400;28;20049;-82
2023/02/05 08:18:30;;;;;;;15.40;11.35;;;;;;;6.82;76.34;101543.53;4996136;28;20054;-81
2023/02/05 08:20:57;;;;;;;19.77;11.40;;;;;;;6.84;76.46;101541.75;5012880;28;20056;-81
2023/02/05 08:23:24;;;;;;;17.23;10.85;;;;;;;6.87;76.63;101544.31;5012925;28;20494;-81
2023/02/05 08:25:54;;;;;;;13.73;10.80;;;;;;;6.87;76.59;101539.09;5013237;28;20088;-81
2023/02/05 08:28:22;;;;;;;14.88;10.68;;;;;;;6.93;76.80;101532.03;5013195;28;20065;-81
2023/02/05 08:30:49;;;;;;;16.95;10.77;;;;;;;6.95;76.92;101541.59;4995667;28;20572;-81
2023/02/05 08:33:16;;;;;;;19.35;11.40;;;;;;;6.99;76.84;101531.97;4995694;28;20128;-80
2023/02/05 08:35:42;;;;;;;15.20;11.05;;;;;;;7.02;76.82;101529.28;5013118;28;20051;-81
2023/02/05 08:38:09;;;;;;;14.25;10.05;;;;;;;7.06;77.02;101530.97;5013210;28;20073;-81
2023/02/05 08:40:36;;;;;;;13.50;9.63;;;;;;;7.07;76.89;101540.59;5012913;28;20050;-81
2023/02/05 08:43:02;;;;;;;13.50;9.57;;;;;;;7.11;77.25;101542.25;5012478;28;20084;-81
2023/02/05 08:45:29;;;;;;;16.17;10.82;;;;;;;7.14;76.91;101541.38;5012346;28;20073;-81
2023/02/05 08:47:56;;;;;;;14.23;9.82;;;;;;;7.15;77.13;101551.81;5012988;28;20084;-81
2023/02/05 08:50:22;;;;;;;15.75;9.77;;;;;;;7.17;76.71;101551.78;5012934;28;20093;-81
2023/02/05 08:52:49;;;;;;;16.70;9.15;;;;;;;7.21;77.27;101542.16;5012742;28;20054;-81
2023/02/05 08:55:19;;;;;;;17.02;9.20;;;;;;;7.23;77.13;101543.00;5012597;28;20049;-81
2023/02/05 08:57:45;;;;;;;12.55;8.52;;;;;;;7.25;77.27;101542.06;5012424;28;20060;-81
2023/02/05 09:00:13;;;;;;;10.82;7.20;;;;;;;7.30;77.59;101544.63;5012574;28;20069;-81
2023/02/05 09:02:41;;;;;;;8.18;6.30;;;;;;;7.34;77.47;101535.84;5012661;28;20061;-81
2023/02/05 09:05:08;;;;;;;11.68;6.43;;;;;;;7.37;77.18;101541.03;5012246;28;20112;-81
2023/02/05 09:07:38;;;;;;;10.98;5.55;;;;;;;7.40;77.37;101541.00;5012521;28;20103;-81
2023/02/05 09:10:10;;;;;;;10.70;5.57;;;;;;;7.45;77.39;101537.44;5012688;28;20066;-81
2023/02/05 09:12:36;;;;;;;9.27;5.20;;;;;;;7.51;77.36;101538.19;5012529;28;20054;-81
2023/02/05 09:15:04;;;;;;;8.70;4.60;;;;;;;7.54;77.40;101537.28;4994664;28;20486;-81
2023/02/05 09:17:31;;;;;;;8.75;4.13;;;;;;;7.59;77.29;101534.59;5012084;28;20541;-81
2023/02/05 09:19:57;;;;;;;9.02;3.33;;;;;;;7.62;77.37;101535.41;5012283;28;20054;-81
2023/02/05 09:22:23;;;;;;;7.75;3.15;;;;;;;7.66;77.29;101541.47;5012118;28;20057;-81
2023/02/05 09:24:50;;;;;;;7.78;2.78;;;;;;;7.69;76.98;101549.28;5012046;28;20076;-81
2023/02/05 09:27:16;;;;;;;6.05;2.50;;;;;;;7.72;77.13;101549.25;5012076;28;20050;-81
2023/02/05 09:29:43;;;;;;;6.97;2.78;;;;;;;7.74;77.06;101536.13;4994659;28;20053;-81
2023/02/05 09:32:09;;;;;;;6.53;2.60;;;;;;;7.77;77.05;101546.53;5012416;28;20049;-81
2023/02/05 09:34:36;;;;;;;4.47;2.08;;;;;;;7.78;77.05;101541.28;5011857;28;20458;-81
2023/02/05 09:37:02;;;;;;;6.55;1.88;;;;;;;7.81;77.26;101554.34;5011561;28;20054;-81
2023/02/05 09:39:30;;;;;;;4.45;1.60;;;;;;;7.84;76.80;101545.56;5011762;28;20553;-82
2023/02/05 09:42:36;;;;;;;3.40;1.08;;;;;;;7.82;76.33;101524.59;5012217;28;20054;-81
2023/02/05 09:45:24;;;;;;;2.75;1.42;;;;;;;7.88;76.75;101536.75;5011702;28;20046;-81
2023/02/05 09:48:29;;;;;;;4.70;1.30;;;;;;;7.91;76.28;101527.97;5011877;28;20058;-81
2023/02/05 09:50:57;;;;;;;3.03;1.20;;;;;;;7.98;76.97;101524.34;5008841;28;20056;-81
2023/02/05 09:53:32;;;;;;;7.18;1.50;;;;;;;7.99;76.59;101538.34;5011602;28;20058;-81
2023/02/05 09:56:03;;;;;;;1.88;1.17;;;;;;;8.01;76.97;101531.28;4993895;28;20577;-81
2023/02/05 09:58:34;;;;;;;2.47;1.30;;;;;;;8.04;77.02;101536.50;5011635;28;20064;-82
2023/02/05 10:01:04;;;;;;;1.77;1.13;;;;;;;8.06;77.16;101545.19;5011647;28;20173;-81
2023/02/05 10:03:47;;;;;;;1.80;1.00;;;;;;;8.05;76.39;101552.22;4994061;28;20096;-80
2023/02/05 10:06:22;;;;;;;1.55;1.00;;;;;;;8.11;76.50;101550.34;5011547;28;20053;-81
2023/02/05 10:09:14;;;;;;;1.52;1.30;;;;;;;8.10;76.43;101554.72;4994092;28;20061;-81
2023/02/05 10:12:04;;;;;;;1.58;1.00;;;;;;;8.14;76.33;101552.91;5011563;28;20512;-81
2023/02/05 10:14:49;;;;;;;3.05;1.20;;;;;;;8.14;76.39;101551.16;5011259;28;20057;-80
2023/02/05 10:17:37;;;;;;;1.70;1.25;;;;;;;8.16;76.55;101559.88;5011195;28;20072;-80
2023/02/05 10:20:20;;;;;;;3.22;1.10;;;;;;;8.18;76.39;101563.34;5011408;28;20088;-80
2023/02/05 10:23:14;;;;;;;3.25;1.13;;;;;;;8.20;76.41;101564.19;5011294;28;20046;-81
2023/02/05 10:25:46;;;;;;;1.83;0.88;;;;;;;8.26;77.49;101557.94;5011275;28;20046;-81
2023/02/05 10:28:33;;;;;;;2.15;1.17;;;;;;;8.24;76.60;101564.09;5010947;28;20487;-81
2023/02/05 10:31:27;;;;;;;2.85;1.52;;;;;;;8.28;77.13;101561.41;5011407;28;20049;-80
2023/02/05 10:34:21;;;;;;;2.50;1.90;;;;;;;8.30;76.98;101564.00;4992853;28;20196;-80
2023/02/05 10:36:52;;;;;;;4.03;1.63;;;;;;;8.35;77.16;101575.28;5007314;28;20054;-80
2023/02/05 10:39:23;;;;;;;1.25;1.15;;;;;;;8.38;77.47;101577.88;5001730;28;20066;-81
2023/02/05 10:41:57;;;;;;;1.58;0.80;;;;;;;8.40;77.16;101583.06;4993457;28;20145;-81
2023/02/05 10:44:32;;;;;;;2.65;0.90;;;;;;;8.39;77.02;101595.34;5011252;28;20060;-79
2023/02/05 10:47:12;;;;;;;2.10;0.80;;;;;;;8.40;77.02;101606.66;5010796;28;20053;-81
2023/02/05 10:49:49;;;;;;;1.85;0.68;;;;;;;8.42;76.93;101607.53;5010862;28;20053;-80
2023/02/05 10:52:16;;;;;;;3.28;1.17;;;;;;;8.47;76.89;101609.19;5010742;28;20108;-80
2023/02/05 10:54:44;;;;;;;2.70;1.60;;;;;;;8.46;76.72;101617.94;5010648;28;20076;-81
2023/02/05 10:57:16;;;;;;;3.17;1.80;;;;;;;8.43;76.64;101614.50;5010606;28;20053;-81
2023/02/05 10:59:54;;;;;;;4.13;1.87;;;;;;;8.41;76.35;101624.19;5010673;28;20065;-81
2023/02/05 11:02:32;;;;;;;4.38;2.47;;;;;;;8.43;76.66;101628.50;5014337;28;20050;-81
2023/02/05 11:08:39;;;;;;;6.85;3.53;;;;;;;8.34;76.18;101649.66;4957916;23;20053;-81
2023/02/05 11:11:15;;;;;;;6.97;3.88;;;;;;;8.35;76.63;101654.00;5013905;28;20065;-82
2023/02/05 11:13:49;;;;;;;6.72;3.88;;;;;;;8.30;76.39;101661.09;5012317;28;20050;-78
2023/02/05 11:16:16;;;;;;;6.00;4.25;;;;;;;8.30;76.49;101663.72;5013949;28;20104;-79
2023/02/05 11:18:53;;;;;;;8.25;4.53;;;;;;;8.26;76.86;101656.78;5014021;28;20365;-81
2023/02/05 11:21:19;;;;;;;9.68;5.57;;;;;;;8.25;76.87;101671.66;5013903;28;20104;-81
2023/02/05 11:23:56;;;;;;;9.35;5.03;;;;;;;8.20;76.48;101663.88;5013843;28;20108;-82
2023/02/05 11:26:26;;;;;;;7.75;5.28;;;;;;;8.21;76.92;101670.84;5014188;28;20050;-81
2023/02/05 11:28:53;;;;;;;11.73;5.78;;;;;;;8.20;77.10;101674.38;5013901;28;20049;-82
2023/02/05 11:31:33;;;;;;;7.85;5.90;;;;;;;8.19;77.12;101675.22;5013875;28;20053;-81
2023/02/05 11:34:16;;;;;;;10.15;5.93;;;;;;;8.16;76.61;101685.81;5013910;28;20085;-81
2023/02/05 11:36:54;;;;;;;10.00;6.40;;;;;;;8.16;76.75;101675.31;5013512;28;20042;-80
2023/02/05 11:39:35;;;;;;;8.82;5.93;;;;;;;8.16;76.57;101683.19;5015120;28;20485;-82
2023/02/05 11:42:22;;;;;;;9.73;5.80;;;;;;;8.15;76.84;101694.53;5013494;28;20407;-80
2023/02/05 11:44:53;;;;;;;8.55;6.00;;;;;;;8.19;77.46;101696.22;5018816;28;20041;-82
2023/02/05 11:47:29;;;;;;;9.82;6.35;;;;;;;8.18;77.22;101698.88;5013770;28;20045;-82
2023/02/05 11:49:57;;;;;;;7.85;6.32;;;;;;;8.23;77.30;101719.78;4996042;28;20148;-79
2023/02/05 11:52:28;;;;;;;7.30;5.82;;;;;;;8.20;77.21;101711.09;5013396;28;20053;-82
2023/02/05 11:54:55;;;;;;;11.45;6.75;;;;;;;8.23;76.89;101725.03;5013196;28;20054;-82